Time;durP1;ratioP1;P1;durP2;ratioP2;P2;SDS_P1;SDS_P2;PMS_P1;PMS_P2;Temp;Humidity;BMP_temperature;BMP_pressure;BME280_temperature;BME280_humidity;BME280_pressure;Samples;Min_cycle;Max_cycle;Signal;HPM_P1;HPM_P2
2021/03/25 00:01:57;;;;;;;1999.90;999.90;;;7.30;95.00;;;;;;5001867;28;20044;-71
2021/03/25 00:04:24;;;;;;;1999.90;999.90;;;7.30;95.10;;;;;;5009561;28;20049;-70
2021/03/25 00:06:53;;;;;;;1999.90;999.90;;;7.20;95.10;;;;;;4992256;28;20516;-70
2021/03/25 00:09:31;;;;;;;1999.90;999.90;;;7.20;95.10;;;;;;5011891;28;20444;-70
2021/03/25 00:11:57;;;;;;;1999.90;999.90;;;7.20;95.20;;;;;;5008822;28;20046;-70
2021/03/25 00:14:24;;;;;;;1999.90;999.90;;;7.20;95.20;;;;;;4996084;28;20421;-70
2021/03/25 00:16:51;;;;;;;1999.90;999.90;;;7.10;95.20;;;;;;5004898;28;20476;-70
2021/03/25 00:26:20;;;;;;;1999.90;999.90;;;7.10;95.30;;;;;;4999539;28;21186;-70
2021/03/25 00:28:46;;;;;;;1999.90;999.90;;;7.10;95.30;;;;;;4996449;28;20125;-69
2021/03/25 00:31:13;;;;;;;1999.90;999.90;;;7.10;95.60;;;;;;5002209;28;20069;-70
2021/03/25 00:33:39;;;;;;;1999.90;999.90;;;7.10;95.50;;;;;;4998584;28;20042;-70
2021/03/25 00:36:06;;;;;;;1999.90;999.90;;;7.20;95.30;;;;;;5004382;28;20046;-70
2021/03/25 00:38:32;;;;;;;1999.90;999.90;;;7.20;95.10;;;;;;5005399;28;20077;-70
2021/03/25 00:40:58;;;;;;;1999.90;999.90;;;7.20;95.00;;;;;;4989963;28;20493;-70
2021/03/25 00:43:24;;;;;;;1999.90;999.90;;;7.20;95.10;;;;;;4990588;28;20052;-70
2021/03/25 00:45:51;;;;;;;1999.90;999.90;;;7.20;95.20;;;;;;4986068;28;20061;-70
2021/03/25 00:55:57;;;;;;;1999.90;999.90;;;7.20;95.50;;;;;;4976402;28;20929;-69
2021/03/25 00:58:24;;;;;;;1999.90;999.90;;;7.20;95.60;;;;;;4991889;28;20486;-70
2021/03/25 01:00:51;;;;;;;1999.90;999.90;;;7.20;95.70;;;;;;4988880;28;20050;-70
2021/03/25 01:03:22;;;;;;;1999.90;999.90;;;7.30;95.80;;;;;;4989212;28;20046;-70
2021/03/25 01:05:49;;;;;;;1999.90;999.90;;;7.20;95.80;;;;;;4986521;28;20039;-70
2021/03/25 01:08:15;;;;;;;1999.90;999.90;;;7.20;95.90;;;;;;4986679;28;20054;-70
2021/03/25 01:11:13;;;;;;;1999.90;999.90;;;7.30;96.00;;;;;;4987945;28;20099;-70
2021/03/25 01:13:43;;;;;;;1999.90;999.90;;;7.30;96.00;;;;;;4988083;28;20042;-70
2021/03/25 01:16:19;;;;;;;1999.90;999.90;;;7.30;96.10;;;;;;4987609;28;20117;-70
2021/03/25 01:18:45;;;;;;;1999.90;999.90;;;7.30;96.20;;;;;;4988866;28;20464;-70
2021/03/25 01:21:12;;;;;;;1999.90;999.90;;;7.30;96.20;;;;;;4985098;28;20173;-70
2021/03/25 01:23:38;;;;;;;1999.90;999.90;;;7.30;96.30;;;;;;5013058;28;20078;-70
2021/03/25 01:26:04;;;;;;;1999.90;999.90;;;7.30;96.30;;;;;;4992917;28;20386;-70
2021/03/25 01:28:30;;;;;;;1999.90;999.90;;;7.40;96.40;;;;;;4990052;28;20127;-70
2021/03/25 01:30:57;;;;;;;1999.90;999.90;;;7.40;96.50;;;;;;4991952;28;20397;-70
2021/03/25 01:33:24;;;;;;;1999.90;999.90;;;7.40;96.50;;;;;;4989743;28;20043;-70
2021/03/25 01:35:51;;;;;;;1999.90;999.90;;;7.40;96.50;;;;;;4988241;28;20042;-69
2021/03/25 01:38:20;;;;;;;1999.90;999.90;;;7.40;96.60;;;;;;4988531;28;20125;-69
2021/03/25 01:40:48;;;;;;;;;;;7.50;96.70;;;;;;4989450;28;20052;-70
2021/03/25 01:43:28;;;;;;;1999.90;999.90;;;7.50;96.70;;;;;;4995631;28;19956;-70
2021/03/25 01:45:55;;;;;;;1999.90;999.90;;;7.50;96.60;;;;;;4986944;28;20111;-70
2021/03/25 01:48:24;;;;;;;1999.90;999.90;;;7.50;96.60;;;;;;4990692;28;20056;-70
2021/03/25 01:50:53;;;;;;;1999.90;999.90;;;7.50;96.60;;;;;;4991489;28;20047;-70
2021/03/25 01:53:45;;;;;;;1999.90;999.90;;;7.50;96.60;;;;;;5005616;28;20046;-70
2021/03/25 01:56:20;;;;;;;1999.90;999.90;;;7.50;96.70;;;;;;4983417;28;20444;-70
2021/03/25 01:58:59;;;;;;;1999.90;999.90;;;7.50;96.70;;;;;;4975406;28;20146;-70
2021/03/25 02:01:52;;;;;;;1999.90;999.90;;;7.50;96.70;;;;;;4998727;28;20043;-70
2021/03/25 02:04:52;;;;;;;1999.90;999.90;;;7.50;96.70;;;;;;4963286;28;20109;-70
2021/03/25 02:07:31;;;;;;;1999.90;999.90;;;7.50;96.70;;;;;;4972218;28;20494;-70
2021/03/25 02:10:39;;;;;;;1999.90;999.90;;;7.40;96.70;;;;;;4973230;28;20096;-70
2021/03/25 02:13:34;;;;;;;1999.90;999.90;;;7.40;96.70;;;;;;4963524;28;20496;-70
2021/03/25 02:16:02;;;;;;;1999.90;999.90;;;7.40;96.60;;;;;;4962632;28;20146;-70
2021/03/25 02:18:40;;;;;;;1999.90;999.90;;;7.30;96.50;;;;;;4977140;28;20086;-70
2021/03/25 02:21:44;;;;;;;1999.90;999.90;;;7.30;96.50;;;;;;4969542;28;20047;-70
2021/03/25 02:24:33;;;;;;;1999.90;999.90;;;7.20;96.50;;;;;;4961188;28;20130;-70
2021/03/25 02:27:17;;;;;;;1999.90;999.90;;;7.20;96.40;;;;;;4969721;28;20146;-70
2021/03/25 02:30:11;;;;;;;1999.90;999.90;;;7.10;96.40;;;;;;4971833;28;20045;-70
2021/03/25 02:32:45;;;;;;;1999.90;999.90;;;7.10;96.30;;;;;;4972081;28;20158;-70
2021/03/25 02:35:29;;;;;;;1999.90;999.90;;;7.00;96.30;;;;;;4992928;28;20147;-70
2021/03/25 02:38:27;;;;;;;1999.90;999.90;;;7.00;96.30;;;;;;4963019;28;20047;-70
2021/03/25 02:40:57;;;;;;;1999.90;999.90;;;6.90;96.30;;;;;;4974543;28;20050;-70
2021/03/25 02:43:39;;;;;;;1999.90;999.90;;;6.80;96.20;;;;;;4968176;28;20078;-70
2021/03/25 02:46:17;;;;;;;1999.90;999.90;;;6.80;96.30;;;;;;4950105;28;20079;-69
2021/03/25 02:48:46;;;;;;;;;;;6.80;96.30;;;;;;4965339;28;20388;-69
2021/03/25 02:51:24;;;;;;;1999.90;999.90;;;6.70;96.30;;;;;;4978921;28;19932;-70
2021/03/25 02:53:50;;;;;;;1999.90;999.90;;;6.70;96.20;;;;;;4964686;28;20043;-69
2021/03/25 02:56:47;;;;;;;1999.90;999.90;;;6.60;96.10;;;;;;4985267;28;20050;-70
2021/03/25 02:59:39;;;;;;;1999.90;999.90;;;6.60;96.20;;;;;;5100911;27;20150;-69
2021/03/25 03:02:30;;;;;;;1999.90;999.90;;;6.50;96.20;;;;;;5001771;28;20045;-70
2021/03/25 03:05:07;;;;;;;1999.90;999.90;;;6.40;96.30;;;;;;5003651;28;20054;-70
2021/03/25 03:07:42;;;;;;;1999.90;999.90;;;6.40;96.20;;;;;;4989546;28;20144;-70
2021/03/25 03:10:11;;;;;;;1999.90;999.90;;;6.40;96.30;;;;;;5000260;28;20044;-70
2021/03/25 03:12:44;;;;;;;1999.90;999.90;;;6.30;96.20;;;;;;5001784;28;20038;-70
2021/03/25 03:15:28;;;;;;;1999.90;999.90;;;6.30;96.30;;;;;;5002536;28;20078;-70
2021/03/25 03:18:13;;;;;;;1999.90;999.90;;;6.20;96.30;;;;;;4993315;28;20144;-70
2021/03/25 03:20:58;;;;;;;1999.90;999.90;;;6.20;96.60;;;;;;4989089;28;20060;-70
2021/03/25 03:23:26;;;;;;;1999.90;999.90;;;6.20;96.40;;;;;;5007815;28;20437;-70
2021/03/25 03:25:55;;;;;;;1999.90;999.90;;;6.20;96.40;;;;;;5006635;28;20133;-70
2021/03/25 03:28:26;;;;;;;1999.90;999.90;;;6.20;96.50;;;;;;5014261;28;20224;-70
2021/03/25 03:31:06;;;;;;;1999.90;999.90;;;6.30;96.60;;;;;;4989258;28;20456;-70
2021/03/25 03:33:39;;;;;;;1999.90;999.90;;;6.30;96.70;;;;;;4987137;28;20054;-70
2021/03/25 03:36:11;;;;;;;1999.90;999.90;;;6.30;96.70;;;;;;5003456;28;20156;-70
2021/03/25 03:38:43;;;;;;;1999.90;999.90;;;6.30;96.80;;;;;;4990258;28;20046;-69
2021/03/25 03:41:13;;;;;;;1999.90;999.90;;;6.30;96.90;;;;;;5007422;28;20052;-70
2021/03/25 03:43:41;;;;;;;1999.90;999.90;;;6.30;96.90;;;;;;4989168;28;20136;-70
2021/03/25 03:46:19;;;;;;;1999.90;999.90;;;6.30;97.00;;;;;;4986205;28;20376;-70
2021/03/25 03:49:01;;;;;;;1999.90;999.90;;;6.30;97.10;;;;;;5020245;28;20044;-70
2021/03/25 03:51:31;;;;;;;1999.90;999.90;;;6.30;97.10;;;;;;5001032;28;20061;-70
2021/03/25 03:54:02;;;;;;;1999.90;999.90;;;6.30;97.10;;;;;;5003520;28;20679;-69
2021/03/25 03:56:52;;;;;;;1999.90;999.90;;;6.30;97.20;;;;;;5005419;28;20100;-70
2021/03/25 03:59:28;;;;;;;1999.90;999.90;;;6.30;97.40;;;;;;5009575;28;20077;-69
2021/03/25 04:02:10;;;;;;;1999.90;999.90;;;6.30;97.70;;;;;;4999985;28;20125;-69
2021/03/25 04:04:40;;;;;;;1999.90;999.90;;;6.30;97.50;;;;;;4993154;28;20132;-70
2021/03/25 04:07:15;;;;;;;1999.90;999.90;;;6.30;97.40;;;;;;4999666;28;20192;-70
2021/03/25 04:09:56;;;;;;;1999.90;999.90;;;6.30;97.30;;;;;;4998608;28;20133;-70
2021/03/25 04:12:28;;;;;;;1999.90;999.90;;;6.40;97.20;;;;;;5004713;28;20267;-69
2021/03/25 04:15:05;;;;;;;1999.90;999.90;;;6.40;97.20;;;;;;5003842;28;20050;-69
2021/03/25 04:17:37;;;;;;;1999.90;999.90;;;6.40;97.20;;;;;;5009253;28;20127;-70
2021/03/25 04:20:11;;;;;;;1999.90;999.90;;;6.50;97.30;;;;;;5003013;28;20060;-69
2021/03/25 04:22:43;;;;;;;1999.90;999.90;;;6.50;97.40;;;;;;5010156;28;20047;-70
2021/03/25 04:25:22;;;;;;;1999.90;999.90;;;6.50;97.50;;;;;;5012093;28;20501;-70
2021/03/25 04:28:12;;;;;;;1999.90;999.90;;;6.50;97.60;;;;;;4983589;28;20054;-70
2021/03/25 04:30:44;;;;;;;1999.90;999.90;;;6.50;97.70;;;;;;5001398;28;20053;-69
2021/03/25 04:33:13;;;;;;;1999.90;999.90;;;6.50;98.00;;;;;;5004501;28;20054;-70
2021/03/25 04:35:43;;;;;;;1999.90;999.90;;;6.50;97.80;;;;;;4981143;28;20051;-70
2021/03/25 04:38:18;;;;;;;1999.90;999.90;;;6.50;97.80;;;;;;4988670;28;20045;-70
2021/03/25 04:40:46;;;;;;;1999.90;999.90;;;6.60;97.90;;;;;;4994219;28;20129;-70
2021/03/25 04:43:20;;;;;;;1999.90;999.90;;;6.60;97.90;;;;;;5002285;28;20164;-70
2021/03/25 04:46:05;;;;;;;1999.90;999.90;;;6.60;97.90;;;;;;5003879;28;20133;-70
2021/03/25 04:48:36;;;;;;;1999.90;999.90;;;6.60;97.90;;;;;;5002903;28;20607;-69
2021/03/25 04:51:09;;;;;;;1999.90;999.90;;;6.60;97.90;;;;;;5008039;28;20138;-69
2021/03/25 04:53:38;;;;;;;1999.90;999.90;;;6.60;98.00;;;;;;5005788;28;20053;-69
2021/03/25 04:56:10;;;;;;;1999.90;999.90;;;6.60;98.00;;;;;;5007211;28;20050;-70
2021/03/25 04:58:42;;;;;;;1999.90;999.90;;;6.60;98.10;;;;;;5008554;28;20050;-70
2021/03/25 05:01:24;;;;;;;1999.90;999.90;;;6.60;98.20;;;;;;4985088;28;20042;-70
2021/03/25 05:03:55;;;;;;;1999.90;999.90;;;6.60;98.50;;;;;;4994385;28;20052;-70
2021/03/25 05:06:27;;;;;;;1999.90;999.90;;;6.60;98.20;;;;;;5000889;28;20106;-70
2021/03/25 05:08:58;;;;;;;1999.90;999.90;;;6.60;98.20;;;;;;5006156;28;20555;-70
2021/03/25 05:11:28;;;;;;;1999.90;999.90;;;6.60;98.20;;;;;;4991188;28;20141;-70
2021/03/25 05:14:10;;;;;;;1999.90;999.90;;;6.60;98.30;;;;;;5004718;28;20481;-70
2021/03/25 05:16:51;;;;;;;1999.90;999.90;;;6.70;98.40;;;;;;5000788;28;20047;-70
2021/03/25 05:19:43;;;;;;;1999.90;999.90;;;6.70;98.50;;;;;;4987281;28;20053;-70
2021/03/25 05:22:27;;;;;;;1999.90;999.90;;;6.70;98.40;;;;;;5002971;28;20381;-71
2021/03/25 05:25:06;;;;;;;1999.90;999.90;;;6.80;98.40;;;;;;4998227;28;20080;-70
2021/03/25 05:27:47;;;;;;;1999.90;999.90;;;6.70;98.30;;;;;;4996064;28;20566;-70
2021/03/25 05:30:21;;;;;;;1999.90;999.90;;;6.70;98.30;;;;;;4990885;28;20050;-70
2021/03/25 05:32:57;;;;;;;1999.90;999.90;;;6.70;98.40;;;;;;4999330;28;20075;-70
2021/03/25 05:35:31;;;;;;;1999.90;999.90;;;6.70;98.40;;;;;;5001980;28;20046;-70
2021/03/25 05:37:58;;;;;;;1999.90;999.90;;;6.70;98.40;;;;;;5002802;28;20052;-70
2021/03/25 05:40:28;;;;;;;1999.90;999.90;;;6.80;98.50;;;;;;5003421;28;20062;-70
2021/03/25 05:43:17;;;;;;;1999.90;999.90;;;6.70;98.70;;;;;;5088519;27;20048;-70
2021/03/25 05:45:48;;;;;;;;;;;6.70;98.40;;;;;;4999017;28;20535;-70
2021/03/25 05:48:45;;;;;;;1999.90;999.90;;;6.70;98.50;;;;;;5004257;28;20394;-70
2021/03/25 05:51:32;;;;;;;1999.90;999.90;;;6.60;98.30;;;;;;4991439;28;20064;-70
2021/03/25 05:54:08;;;;;;;1999.90;999.90;;;6.60;98.30;;;;;;4997129;28;20141;-70
2021/03/25 05:56:48;;;;;;;1999.90;999.90;;;6.60;98.30;;;;;;5002859;28;20099;-70
2021/03/25 05:59:17;;;;;;;1999.90;999.90;;;6.60;98.30;;;;;;5038936;28;20076;-70
2021/03/25 06:02:00;;;;;;;1999.90;999.90;;;6.60;98.30;;;;;;4983219;28;20064;-70
2021/03/25 06:04:31;;;;;;;1999.90;999.90;;;6.60;98.30;;;;;;5001419;28;20111;-70
2021/03/25 06:07:16;;;;;;;1999.90;999.90;;;6.50;98.10;;;;;;4992482;28;20523;-70
2021/03/25 06:10:18;;;;;;;1999.90;999.90;;;6.50;98.10;;;;;;5010197;28;20508;-70
2021/03/25 06:13:01;;;;;;;1999.90;999.90;;;6.40;98.10;;;;;;4989992;28;20052;-70
2021/03/25 06:15:49;;;;;;;1999.90;999.90;;;6.40;98.20;;;;;;5005428;28;20051;-70
2021/03/25 06:18:34;;;;;;;1999.90;999.90;;;6.30;98.30;;;;;;5010690;28;20050;-70
2021/03/25 06:21:12;;;;;;;1999.90;999.90;;;6.40;98.50;;;;;;5000876;28;20046;-70
2021/03/25 06:23:50;;;;;;;1999.90;999.90;;;6.40;98.60;;;;;;4987763;28;20052;-70
2021/03/25 06:26:39;;;;;;;1999.90;999.90;;;6.50;98.70;;;;;;4995036;28;20053;-69
2021/03/25 06:29:14;;;;;;;1999.90;999.90;;;6.50;99.10;;;;;;5007786;28;20052;-70
2021/03/25 06:31:53;;;;;;;1999.90;999.90;;;6.60;98.90;;;;;;5007726;28;20149;-70
2021/03/25 06:34:36;;;;;;;1999.90;999.90;;;6.60;99.00;;;;;;4991031;28;20057;-70
2021/03/25 06:37:23;;;;;;;1999.90;999.90;;;6.70;99.10;;;;;;5000192;28;20127;-70
2021/03/25 06:39:54;;;;;;;1999.90;999.90;;;6.70;99.60;;;;;;4985587;28;20057;-69
2021/03/25 06:42:35;;;;;;;1999.90;999.90;;;6.70;99.90;;;;;;4979694;28;20046;-70
2021/03/25 06:45:25;;;;;;;1999.90;999.90;;;6.70;99.90;;;;;;4998080;28;20450;-70
2021/03/25 06:48:16;;;;;;;1999.90;999.90;;;6.80;99.80;;;;;;4988556;28;20046;-70
2021/03/25 06:50:49;;;;;;;1999.90;999.90;;;6.90;99.90;;;;;;4986520;28;20053;-70
2021/03/25 06:53:15;;;;;;;1999.90;999.90;;;7.00;99.90;;;;;;5003818;28;20046;-70
2021/03/25 06:55:46;;;;;;;1999.90;999.90;;;7.10;99.90;;;;;;4997506;28;20467;-69
2021/03/25 06:58:25;;;;;;;1999.90;999.90;;;7.20;99.90;;;;;;5005122;28;20089;-70
2021/03/25 07:01:18;;;;;;;1999.90;999.90;;;7.40;99.90;;;;;;5003815;28;20184;-70
2021/03/25 07:03:45;;;;;;;1999.90;999.90;;;7.50;99.90;;;;;;4988920;28;20472;-70
2021/03/25 07:06:12;;;;;;;1999.90;999.90;;;7.60;99.90;;;;;;4997219;28;20438;-70
2021/03/25 07:08:38;;;;;;;1999.90;999.90;;;7.70;99.90;;;;;;5085982;27;20134;-70
2021/03/25 07:11:15;;;;;;;1999.90;999.90;;;7.80;99.90;;;;;;5025478;28;20052;-70
2021/03/25 07:13:48;;;;;;;1999.90;999.90;;;7.90;99.90;;;;;;5016194;28;20129;-70
2021/03/25 07:16:14;;;;;;;1999.90;999.90;;;8.00;99.90;;;;;;5002275;28;20085;-70
2021/03/25 07:19:01;;;;;;;1999.90;999.90;;;8.10;99.90;;;;;;5002407;28;20043;-70
2021/03/25 07:21:30;;;;;;;1999.90;999.90;;;8.30;99.90;;;;;;5005562;28;20457;-70
2021/03/25 07:23:59;;;;;;;1999.90;999.90;;;8.40;99.90;;;;;;5001475;28;20128;-70
2021/03/25 07:26:37;;;;;;;1999.90;999.90;;;8.60;99.90;;;;;;4996052;28;20104;-70
2021/03/25 07:29:09;;;;;;;1999.90;999.90;;;8.70;99.90;;;;;;5023116;28;20076;-70
2021/03/25 07:31:51;;;;;;;1999.90;999.90;;;8.70;99.90;;;;;;4996804;28;20068;-70
2021/03/25 07:34:43;;;;;;;1999.90;999.90;;;8.80;99.90;;;;;;5079668;27;20046;-70
2021/03/25 07:37:13;;;;;;;1999.90;999.90;;;8.90;99.90;;;;;;5001305;28;20520;-70
2021/03/25 07:39:49;;;;;;;1999.90;999.90;;;8.90;99.90;;;;;;5005475;28;20137;-70
2021/03/25 07:42:25;;;;;;;1999.90;999.90;;;8.90;99.90;;;;;;5002710;28;20047;-70
2021/03/25 07:44:52;;;;;;;1999.90;999.90;;;8.90;99.90;;;;;;4998836;28;20133;-70
2021/03/25 07:47:34;;;;;;;1999.90;999.90;;;8.90;99.90;;;;;;4997796;28;20424;-70
2021/03/25 07:50:19;;;;;;;1999.90;999.90;;;9.00;99.90;;;;;;5002868;28;20053;-70
2021/03/25 07:52:46;;;;;;;1999.90;999.90;;;9.10;99.90;;;;;;5005448;28;20137;-70
2021/03/25 07:55:18;;;;;;;1999.90;999.90;;;9.20;99.90;;;;;;4999473;28;20053;-70
2021/03/25 07:57:47;;;;;;;1999.90;999.90;;;9.20;99.90;;;;;;4999418;28;20047;-70
2021/03/25 08:00:30;;;;;;;1999.90;999.90;;;9.20;99.90;;;;;;5004039;28;20060;-70
2021/03/25 08:03:21;;;;;;;1999.90;999.90;;;9.20;99.90;;;;;;5002176;28;20401;-70
2021/03/25 08:09:17;;;;;;;1999.90;999.90;;;9.20;99.90;;;;;;5001579;28;20081;-70
2021/03/25 08:11:56;;;;;;;1999.90;999.90;;;9.30;99.90;;;;;;4999446;28;20398;-70
2021/03/25 08:14:27;;;;;;;1999.90;999.90;;;9.30;99.90;;;;;;4978142;28;20165;-70
2021/03/25 08:17:16;;;;;;;1999.90;999.90;;;9.40;99.90;;;;;;4999180;28;20469;-70
2021/03/25 08:20:17;;;;;;;1999.90;999.90;;;9.40;99.90;;;;;;5004420;28;20042;-70
2021/03/25 08:22:55;;;;;;;1999.90;999.90;;;9.50;99.90;;;;;;4983385;28;20510;-70
2021/03/25 08:25:32;;;;;;;1999.90;999.90;;;9.50;99.90;;;;;;4999789;28;20096;-70
2021/03/25 08:28:25;;;;;;;1999.90;999.90;;;9.50;99.90;;;;;;4998923;28;20049;-70
2021/03/25 08:30:59;;;;;;;1999.90;999.90;;;9.60;99.90;;;;;;5000577;28;20048;-70
2021/03/25 08:33:52;;;;;;;1999.90;999.90;;;9.60;99.90;;;;;;4982553;28;20046;-70
2021/03/25 08:36:37;;;;;;;1999.90;999.90;;;9.70;99.90;;;;;;4997653;28;20045;-70
2021/03/25 08:39:36;;;;;;;1999.90;999.90;;;9.70;99.90;;;;;;4997163;28;20053;-70
2021/03/25 08:42:29;;;;;;;1999.90;999.90;;;9.70;99.90;;;;;;4996045;28;20043;-70
2021/03/25 08:45:04;;;;;;;1999.90;999.90;;;9.80;99.90;;;;;;4992873;28;20049;-70
2021/03/25 08:47:52;;;;;;;1999.90;999.90;;;9.90;99.90;;;;;;4990808;28;20654;-70
2021/03/25 08:50:52;;;;;;;1999.90;999.90;;;10.00;99.90;;;;;;4994328;28;20056;-71
2021/03/25 08:53:40;;;;;;;1999.90;999.90;;;10.20;99.90;;;;;;4992375;28;20124;-70
2021/03/25 08:56:44;;;;;;;1999.90;999.90;;;10.30;99.90;;;;;;4987322;28;20047;-70
2021/03/25 08:59:25;;;;;;;1999.90;999.90;;;10.30;99.90;;;;;;4940810;28;20044;-70
2021/03/25 09:01:56;;;;;;;1999.90;999.90;;;10.40;99.90;;;;;;4991446;28;20052;-71
2021/03/25 09:04:25;;;;;;;1999.90;999.90;;;10.40;99.90;;;;;;4999788;28;20547;-70
2021/03/25 09:06:52;;;;;;;1999.90;999.90;;;10.40;99.90;;;;;;4984557;28;20415;-70
2021/03/25 09:09:29;;;;;;;1999.90;999.90;;;10.30;99.90;;;;;;5002643;28;20412;-70
2021/03/25 09:11:57;;;;;;;1999.90;999.90;;;10.30;99.90;;;;;;4987241;28;20172;-70
2021/03/25 09:14:25;;;;;;;1999.90;999.90;;;10.40;99.90;;;;;;5003964;28;20064;-70
2021/03/25 09:17:12;;;;;;;1999.90;999.90;;;10.50;99.90;;;;;;4977640;28;20046;-70
2021/03/25 09:19:42;;;;;;;1999.90;999.90;;;10.60;99.90;;;;;;4999657;28;20182;-70
2021/03/25 09:22:29;;;;;;;1999.90;999.90;;;10.70;99.90;;;;;;4986271;28;20452;-70
2021/03/25 09:25:14;;;;;;;1999.90;999.90;;;10.70;99.90;;;;;;4983404;28;20046;-70
2021/03/25 09:27:59;;;;;;;1999.90;999.90;;;10.70;99.90;;;;;;4997251;28;20076;-70
2021/03/25 09:30:38;;;;;;;1999.90;999.90;;;10.70;99.90;;;;;;4997939;28;20046;-70
2021/03/25 09:33:41;;;;;;;1999.90;999.90;;;10.70;99.90;;;;;;4989662;28;20050;-70
2021/03/25 09:36:16;;;;;;;1999.90;999.90;;;10.80;99.90;;;;;;5007994;28;20122;-70
2021/03/25 09:38:49;;;;;;;1999.90;999.90;;;10.80;99.90;;;;;;4983066;28;20125;-70
2021/03/25 09:41:24;;;;;;;1999.90;999.90;;;10.90;99.90;;;;;;4999010;28;20133;-70
2021/03/25 09:44:12;;;;;;;1999.90;999.90;;;10.90;99.90;;;;;;4989080;28;20085;-70
2021/03/25 09:46:47;;;;;;;1999.90;999.90;;;11.00;99.90;;;;;;5095398;27;20049;-70
2021/03/25 09:49:28;;;;;;;1999.90;999.90;;;10.90;99.90;;;;;;4998595;28;20094;-71
2021/03/25 09:52:07;;;;;;;1999.90;999.90;;;10.80;99.90;;;;;;4991693;28;20149;-70
2021/03/25 09:54:44;;;;;;;1999.90;999.90;;;10.80;99.90;;;;;;5000644;28;20161;-70
2021/03/25 09:57:25;;;;;;;1999.90;999.90;;;10.80;99.90;;;;;;5006409;28;20172;-70
2021/03/25 10:00:04;;;;;;;1999.90;999.90;;;10.70;99.90;;;;;;4982282;28;20078;-70
2021/03/25 10:07:56;;;;;;;1999.90;999.90;;;10.60;99.90;;;;;;4999035;28;20052;-70
2021/03/25 10:10:42;;;;;;;1999.90;999.90;;;10.60;99.90;;;;;;5001740;28;20136;-70
2021/03/25 10:13:12;;;;;;;1999.90;999.90;;;10.60;99.90;;;;;;4986397;28;20463;-70
2021/03/25 10:15:57;;;;;;;1999.90;999.90;;;10.50;99.90;;;;;;4994496;28;20459;-70
2021/03/25 10:18:24;;;;;;;1999.90;999.90;;;10.50;99.90;;;;;;5006206;28;20054;-70
2021/03/25 10:21:14;;;;;;;1999.90;999.90;;;10.50;99.90;;;;;;4990746;28;20052;-70
2021/03/25 10:23:49;;;;;;;1999.90;999.90;;;10.50;99.90;;;;;;5003641;28;20141;-70
2021/03/25 10:26:39;;;;;;;1999.90;999.90;;;10.50;99.90;;;;;;4985474;28;20099;-70
2021/03/25 10:29:11;;;;;;;1999.90;999.90;;;10.50;99.90;;;;;;5004798;28;20069;-70
2021/03/25 10:31:43;;;;;;;1999.90;999.90;;;10.50;99.90;;;;;;5004431;28;20136;-70
2021/03/25 10:34:30;;;;;;;1999.90;999.90;;;10.50;99.90;;;;;;4996641;28;20042;-70
2021/03/25 10:37:18;;;;;;;1999.90;999.90;;;10.50;99.90;;;;;;5004195;28;20049;-70
2021/03/25 10:39:46;;;;;;;1999.90;999.90;;;10.50;99.90;;;;;;4999021;28;20128;-71
2021/03/25 10:42:27;;;;;;;1999.90;999.90;;;10.50;99.90;;;;;;5004264;28;20078;-71
2021/03/25 10:44:55;;;;;;;1999.90;999.90;;;10.50;99.90;;;;;;5000217;28;20087;-70
2021/03/25 10:47:30;;;;;;;1999.90;999.90;;;10.40;99.90;;;;;;4974297;28;20537;-70
2021/03/25 10:50:00;;;;;;;1999.90;999.90;;;10.40;99.90;;;;;;4997524;28;20049;-70
2021/03/25 10:52:39;;;;;;;1999.90;999.90;;;10.40;99.90;;;;;;4993685;28;20386;-70
2021/03/25 11:02:55;;;;;;;;;;;10.30;99.90;;;;;;4967217;28;20049;-70
2021/03/25 11:05:38;;;;;;;1999.90;999.90;;;10.30;99.90;;;;;;4982159;28;19965;-70
2021/03/25 11:08:32;;;;;;;1999.90;999.90;;;10.30;99.90;;;;;;4974440;28;21561;-70
2021/03/25 11:11:06;;;;;;;1999.90;999.90;;;10.30;99.90;;;;;;4996095;28;20121;-70
2021/03/25 11:13:33;;;;;;;1999.90;999.90;;;10.30;99.90;;;;;;4976738;28;20129;-70
2021/03/25 11:16:20;;;;;;;1999.90;999.90;;;10.40;99.90;;;;;;4973672;28;20659;-70
2021/03/25 11:18:55;;;;;;;1999.90;999.90;;;10.50;99.90;;;;;;4973678;28;20514;-70
2021/03/25 11:21:30;;;;;;;1999.90;999.90;;;10.50;99.90;;;;;;5078595;27;20042;-70
2021/03/25 11:24:24;;;;;;;1999.90;999.90;;;10.60;99.90;;;;;;4985783;28;20058;-70
2021/03/25 11:27:06;;;;;;;1999.90;999.90;;;10.60;99.90;;;;;;4992476;28;20058;-70
2021/03/25 11:29:36;;;;;;;1999.90;999.90;;;10.60;99.90;;;;;;4982327;28;20077;-70
2021/03/25 11:32:26;;;;;;;1999.90;999.90;;;10.50;99.90;;;;;;4998419;28;20509;-71
2021/03/25 11:34:54;;;;;;;1999.90;999.90;;;10.50;99.90;;;;;;4998465;28;20052;-71
2021/03/25 11:37:30;;;;;;;1999.90;999.90;;;10.40;99.90;;;;;;4993868;28;20047;-70
2021/03/25 11:40:02;;;;;;;1999.90;999.90;;;10.40;99.90;;;;;;5071830;27;20050;-70
2021/03/25 11:42:30;;;;;;;1999.90;999.90;;;10.40;99.90;;;;;;4994059;28;20049;-71
2021/03/25 11:44:58;;;;;;;1999.90;999.90;;;10.50;99.90;;;;;;4992112;28;20398;-70
2021/03/25 11:47:24;;;;;;;1999.90;999.90;;;10.50;99.90;;;;;;4992722;28;20546;-70
2021/03/25 11:49:51;;;;;;;1999.90;999.90;;;10.60;99.90;;;;;;4992509;28;21821;-70
2021/03/25 11:52:21;;;;;;;1999.90;999.90;;;10.70;99.90;;;;;;4992743;28;20502;-70
2021/03/25 11:54:58;;;;;;;1999.90;999.90;;;10.70;99.90;;;;;;4990734;28;20049;-70
2021/03/25 11:57:33;;;;;;;1999.90;999.90;;;10.70;99.90;;;;;;5070312;27;20451;-70
2021/03/25 12:00:11;;;;;;;1999.90;999.90;;;10.70;99.90;;;;;;4965556;28;20054;-70
2021/03/25 12:02:40;;;;;;;1999.90;999.90;;;10.60;99.90;;;;;;4996004;28;20175;-70
2021/03/25 12:05:41;;;;;;;1999.90;999.90;;;10.50;99.90;;;;;;4974048;28;20058;-70
2021/03/25 12:08:13;;;;;;;1999.90;999.90;;;10.50;99.90;;;;;;4967207;28;20069;-70
2021/03/25 12:10:41;;;;;;;1999.90;999.90;;;10.40;99.90;;;;;;4979472;28;20058;-70
2021/03/25 12:13:09;;;;;;;1999.90;999.90;;;10.30;99.90;;;;;;4987028;28;20421;-70
2021/03/25 12:15:37;;;;;;;1999.90;999.90;;;10.30;99.90;;;;;;4992209;28;20401;-70
2021/03/25 12:18:07;;;;;;;1999.90;999.90;;;10.30;99.90;;;;;;4977561;28;20484;-70
2021/03/25 12:20:39;;;;;;;1999.90;999.90;;;10.20;99.90;;;;;;4996159;28;20054;-70
2021/03/25 12:23:05;;;;;;;1999.90;999.90;;;10.30;99.90;;;;;;5000652;28;20042;-70
2021/03/25 12:25:38;;;;;;;1999.90;999.90;;;10.30;99.90;;;;;;4978854;28;20136;-70
2021/03/25 12:28:05;;;;;;;1999.90;999.90;;;10.40;99.90;;;;;;4995653;28;20046;-70
2021/03/25 12:30:31;;;;;;;1999.90;999.90;;;10.50;99.90;;;;;;4982637;28;20086;-69
2021/03/25 12:32:58;;;;;;;1999.90;999.90;;;10.50;99.90;;;;;;4993267;28;20053;-69
2021/03/25 12:35:25;;;;;;;1999.90;999.90;;;10.60;99.90;;;;;;4999911;28;20050;-70
2021/03/25 12:37:51;;;;;;;1999.90;999.90;;;10.60;99.90;;;;;;4983149;28;20470;-70
2021/03/25 12:40:21;;;;;;;1999.90;999.90;;;10.60;99.90;;;;;;4983296;28;20050;-69
2021/03/25 12:42:49;;;;;;;1999.90;999.90;;;10.50;99.90;;;;;;4998731;28;20043;-70
2021/03/25 12:45:29;;;;;;;1999.90;999.90;;;10.50;99.90;;;;;;4984111;28;20138;-69
2021/03/25 12:47:57;;;;;;;1999.90;999.90;;;10.60;99.90;;;;;;4999088;28;21052;-70
2021/03/25 12:50:25;;;;;;;1999.90;999.90;;;10.60;99.90;;;;;;5007653;28;20059;-70
2021/03/25 12:52:52;;;;;;;1999.90;999.90;;;10.70;99.90;;;;;;5003317;28;20460;-70
2021/03/25 12:55:19;;;;;;;1999.90;999.90;;;10.80;99.90;;;;;;4997553;28;20124;-70
2021/03/25 12:57:48;;;;;;;1999.90;999.90;;;10.90;99.90;;;;;;5005397;28;20049;-70
2021/03/25 13:00:22;;;;;;;1999.90;999.90;;;11.00;99.90;;;;;;4997985;28;20128;-70
2021/03/25 13:02:49;;;;;;;1999.90;999.90;;;11.10;99.90;;;;;;5078940;28;20094;-70
2021/03/25 13:05:16;;;;;;;1999.90;999.90;;;11.20;99.90;;;;;;4994932;28;20089;-70
2021/03/25 13:07:42;;;;;;;1999.90;999.90;;;11.30;99.90;;;;;;5000252;28;20057;-70
2021/03/25 13:10:09;;;;;;;1999.90;999.90;;;11.50;99.90;;;;;;5000400;28;20145;-70
2021/03/25 13:12:36;;;;;;;1999.90;999.90;;;11.60;99.90;;;;;;4997429;28;20058;-70
2021/03/25 13:15:03;;;;;;;1999.90;999.90;;;11.60;99.90;;;;;;4999906;28;20051;-70
2021/03/25 13:17:29;;;;;;;1999.90;999.90;;;11.70;99.90;;;;;;4997912;28;20046;-70
2021/03/25 13:20:18;;;;;;;1999.90;999.90;;;11.80;99.90;;;;;;4985872;28;20048;-70
2021/03/25 13:22:45;;;;;;;1999.90;999.90;;;11.90;99.90;;;;;;4976764;28;20056;-70